INFORMAÇÕES METEOROLÓGICAS
METAR FOR SCEL
ADDS - METARS form results

(1402 UTC 20 April 2018)
Data provider http://aviationweather.gov/adds/metars/
 
METAR text: SCEL 201400Z VRB02KT 7000 NSC 17/07 Q1017 NOSIG
Conditions at: SCEL (PUDAHUEL/ARTURO , CL) observed 1400 UTC 20 April 2018
Temperature: 17.0°C (63°F)
Dewpoint: 7.0°C (45°F) [RH = 52%]
Pressure (altimeter): 30.03 inches Hg (1017.0 mb)
Winds: variable direction winds at 2 MPH (2 knots; 1.0 m/s)
Visibility: 4 miles (7 km)
Ceiling: at least 12,000 feet AGL
Clouds: sky clear below 12,000 feet AGL
Weather: no significant weather observed at this time

Forecast for: SCEL (PUDAHUEL/ARTURO , CL)
Text: TAF SCEL 201014Z 2012/2112 VRB03KT CAVOK TX26/2019Z TN09/2110Z
Forecast period: 1200 to 1400 UTC 20 April 2018
Forecast type: FROM: standard forecast or significant change
Winds: variable direction winds at 3 MPH (3 knots; 1.6 m/s)
Visibility: 6 or more miles (10+ km)
Clouds: not forecast
Weather: no significant weather forecast for this period
Forecast for: SCEL (PUDAHUEL/ARTURO , CL)
Text: TAF SCEL 201014Z 2012/2112 VRB03KT CAVOK TX26/2019Z TN09/2110Z
Forecast period: 1200 to 1400 UTC 20 April 2018
Forecast type: FROM: standard forecast or significant change
Winds: variable direction winds at 3 MPH (3 knots; 1.6 m/s)
Visibility: 6 or more miles (10+ km)
Clouds: not forecast
Weather: no significant weather forecast for this period
Forecast for: SCEL (PUDAHUEL/ARTURO , CL)
Text: TAF SCEL 201014Z 2012/2112 VRB03KT CAVOK TX26/2019Z TN09/2110Z
Forecast period: 1200 to 1400 UTC 20 April 2018
Forecast type: TEMPORARY: The following changes expected for less than half the time period
Visibility: 4 miles (7 km)
Weather: no significant weather forecast for this period
Forecast for: SCEL (PUDAHUEL/ARTURO , CL)
Text: TAF SCEL 201014Z 2012/2112 VRB03KT CAVOK TX26/2019Z TN09/2110Z
Forecast period: 1200 to 1400 UTC 20 April 2018
Forecast type: TEMPORARY: The following changes expected for less than half the time period
Visibility: 4 miles (7 km)
Weather: no significant weather forecast for this period
Forecast for: SCEL (PUDAHUEL/ARTURO , CL)
Text: TAF SCEL 201014Z 2012/2112 VRB03KT CAVOK TX26/2019Z TN09/2110Z
Forecast period: 1400 to 1800 UTC 20 April 2018
Forecast type: BECOMING: Conditions expected to become as follows by 1600 UTC 20 April 2018
Winds: from the SSE (160 degrees) at 5 MPH (4 knots; 2.1 m/s)
Visibility: 6 or more miles (10+ km)
Weather: no significant weather forecast for this period
Forecast for: SCEL (PUDAHUEL/ARTURO , CL)
Text: TAF SCEL 201014Z 2012/2112 VRB03KT CAVOK TX26/2019Z TN09/2110Z
Forecast period: 1400 to 1800 UTC 20 April 2018
Forecast type: BECOMING: Conditions expected to become as follows by 1600 UTC 20 April 2018
Winds: from the SSE (160 degrees) at 5 MPH (4 knots; 2.1 m/s)
Visibility: 6 or more miles (10+ km)
Weather: no significant weather forecast for this period
Forecast for: SCEL (PUDAHUEL/ARTURO , CL)
Text: TAF SCEL 201014Z 2012/2112 VRB03KT CAVOK TX26/2019Z TN09/2110Z
Forecast period: 1800 UTC 20 April 2018 to 0000 UTC 21 April 2018
Forecast type: BECOMING: Conditions expected to become as follows by 2000 UTC 20 April 2018
Winds: from the S (190 degrees) at 14 MPH (12 knots; 6.2 m/s)
Visibility: 6 or more miles (10+ km)
Weather: no significant weather forecast for this period
Forecast for: SCEL (PUDAHUEL/ARTURO , CL)
Text: TAF SCEL 201014Z 2012/2112 VRB03KT CAVOK TX26/2019Z TN09/2110Z
Forecast period: 1800 UTC 20 April 2018 to 0000 UTC 21 April 2018
Forecast type: BECOMING: Conditions expected to become as follows by 2000 UTC 20 April 2018
Winds: from the S (190 degrees) at 14 MPH (12 knots; 6.2 m/s)
Visibility: 6 or more miles (10+ km)
Weather: no significant weather forecast for this period
Forecast for: SCEL (PUDAHUEL/ARTURO , CL)
Text: TAF SCEL 201014Z 2012/2112 VRB03KT CAVOK TX26/2019Z TN09/2110Z
Forecast period: 0000 to 1200 UTC 21 April 2018
Forecast type: BECOMING: Conditions expected to become as follows by 0200 UTC 21 April 2018
Winds: from the SSE (160 degrees) at 5 MPH (4 knots; 2.1 m/s)
Visibility: 6 or more miles (10+ km)
Weather: no significant weather forecast for this period
Forecast for: SCEL (PUDAHUEL/ARTURO , CL)
Text: TAF SCEL 201014Z 2012/2112 VRB03KT CAVOK TX26/2019Z TN09/2110Z
Forecast period: 0000 to 1200 UTC 21 April 2018
Forecast type: BECOMING: Conditions expected to become as follows by 0200 UTC 21 April 2018
Winds: from the SSE (160 degrees) at 5 MPH (4 knots; 2.1 m/s)
Visibility: 6 or more miles (10+ km)
Weather: no significant weather forecast for this period

 MAPA DO AEROPORTO

 INFORMAÇÕES DA PISTA
Pista 17L Tamanho da pista 12303 ft Largura da pista 180 ft
Elevação da pista 1550 ft Ranhura da pista 0 ft Proa da pista 178
Pista 35R Tamanho da pista 12303 ft Largura da pista 180 ft
Elevação da pista 1555 ft Ranhura da pista 1800 ft Proa da pista 358
Pista 17R Tamanho da pista 12303 ft Largura da pista 148 ft
Elevação da pista 1551 ft Ranhura da pista 0 ft Proa da pista 177
Pista 35L Tamanho da pista 12303 ft Largura da pista 148 ft
Elevação da pista 1550 ft Ranhura da pista 0 ft Proa da pista 357

 FREQUÊNCIAS DO AEROPORTO
Tipo APP Nome SANTIAGO A Frequência 126.3 MHZ
Tipo APP Nome SANTIAGO A Frequência 128.1 MHZ
Tipo ATIS Nome ATIS Frequência 132.1 MHZ
Tipo CLD Nome CLNC DEL Frequência 121.7 MHZ
Tipo CNTR Nome SANTIAGO C Frequência 129.7 MHZ
Tipo GND Nome GND Frequência 122.2 MHZ
Tipo RDO Nome SANTIAGO R Frequência 121.5 MHZ
Tipo RDO Nome SANTIAGO R Frequência 664.9 MHZ
Tipo TWR Nome SANTIAGO T Frequência 118.1 MHZ

 AUXÍLIOS DE NAVEGAÇÃO PRÓXIMOS AO AEROPORTO
Tipo VOR-DME Nome Santiago Frequência 116100 KHZ
Tipo VOR-DME Nome Pudahuel Frequência 117200 KHZ
Tipo NDB Nome Lo Castro Frequência 220 KHZ



Powered by Mercosul Lnhas Aereas